sensor_id;sensor_type;location;lat;lon;timestamp;P1;durP1;ratioP1;P2;durP2;ratioP2
14528;SDS011;7351;51.194;4.098;2023-05-07T00:00:48;4.70;;;4.30;;
14528;SDS011;7351;51.194;4.098;2023-05-07T00:03:16;4.57;;;4.27;;
14528;SDS011;7351;51.194;4.098;2023-05-07T00:05:44;4.90;;;4.50;;
14528;SDS011;7351;51.194;4.098;2023-05-07T00:08:11;4.27;;;3.97;;
14528;SDS011;7351;51.194;4.098;2023-05-07T00:10:38;5.90;;;4.87;;
14528;SDS011;7351;51.194;4.098;2023-05-07T00:13:06;5.40;;;4.87;;
14528;SDS011;7351;51.194;4.098;2023-05-07T00:15:33;4.20;;;3.80;;
14528;SDS011;7351;51.194;4.098;2023-05-07T00:18:00;4.40;;;3.80;;
14528;SDS011;7351;51.194;4.098;2023-05-07T00:20:27;4.27;;;3.80;;
14528;SDS011;7351;51.194;4.098;2023-05-07T00:22:54;5.03;;;4.30;;
14528;SDS011;7351;51.194;4.098;2023-05-07T00:25:21;5.77;;;4.17;;
14528;SDS011;7351;51.194;4.098;2023-05-07T00:27:48;4.60;;;4.23;;
14528;SDS011;7351;51.194;4.098;2023-05-07T00:30:17;4.17;;;3.77;;
14528;SDS011;7351;51.194;4.098;2023-05-07T00:32:44;3.93;;;3.57;;
14528;SDS011;7351;51.194;4.098;2023-05-07T00:35:11;5.10;;;4.27;;
14528;SDS011;7351;51.194;4.098;2023-05-07T00:37:38;4.40;;;4.00;;
14528;SDS011;7351;51.194;4.098;2023-05-07T00:40:06;4.20;;;3.90;;
14528;SDS011;7351;51.194;4.098;2023-05-07T00:42:33;4.83;;;4.57;;
14528;SDS011;7351;51.194;4.098;2023-05-07T00:45:00;4.43;;;4.03;;
14528;SDS011;7351;51.194;4.098;2023-05-07T00:47:29;4.57;;;4.27;;
14528;SDS011;7351;51.194;4.098;2023-05-07T00:49:56;4.67;;;4.27;;
14528;SDS011;7351;51.194;4.098;2023-05-07T00:52:25;4.53;;;4.23;;
14528;SDS011;7351;51.194;4.098;2023-05-07T00:54:53;4.37;;;3.97;;
14528;SDS011;7351;51.194;4.098;2023-05-07T00:57:21;4.40;;;4.00;;
14528;SDS011;7351;51.194;4.098;2023-05-07T00:59:50;4.67;;;4.27;;
14528;SDS011;7351;51.194;4.098;2023-05-07T01:02:18;4.53;;;4.13;;
14528;SDS011;7351;51.194;4.098;2023-05-07T01:04:46;4.30;;;3.93;;
14528;SDS011;7351;51.194;4.098;2023-05-07T01:07:13;4.53;;;4.13;;
14528;SDS011;7351;51.194;4.098;2023-05-07T01:09:40;7.03;;;3.73;;
14528;SDS011;7351;51.194;4.098;2023-05-07T01:12:07;5.00;;;4.57;;
14528;SDS011;7351;51.194;4.098;2023-05-07T01:14:35;3.90;;;3.60;;
14528;SDS011;7351;51.194;4.098;2023-05-07T01:17:02;4.37;;;3.97;;
14528;SDS011;7351;51.194;4.098;2023-05-07T01:19:29;6.43;;;4.83;;
14528;SDS011;7351;51.194;4.098;2023-05-07T01:22:01;4.10;;;3.80;;
14528;SDS011;7351;51.194;4.098;2023-05-07T01:24:31;4.73;;;4.40;;
14528;SDS011;7351;51.194;4.098;2023-05-07T01:26:59;4.50;;;4.20;;
14528;SDS011;7351;51.194;4.098;2023-05-07T01:29:26;4.77;;;4.37;;
14528;SDS011;7351;51.194;4.098;2023-05-07T01:31:53;4.50;;;4.17;;
14528;SDS011;7351;51.194;4.098;2023-05-07T01:34:23;4.57;;;4.27;;
14528;SDS011;7351;51.194;4.098;2023-05-07T01:36:52;5.10;;;4.07;;
14528;SDS011;7351;51.194;4.098;2023-05-07T01:39:20;4.43;;;4.03;;
14528;SDS011;7351;51.194;4.098;2023-05-07T01:41:50;4.57;;;4.23;;
14528;SDS011;7351;51.194;4.098;2023-05-07T01:44:17;4.70;;;4.30;;
14528;SDS011;7351;51.194;4.098;2023-05-07T01:46:45;3.90;;;3.60;;
14528;SDS011;7351;51.194;4.098;2023-05-07T01:49:14;6.30;;;4.00;;
14528;SDS011;7351;51.194;4.098;2023-05-07T01:51:41;5.33;;;4.00;;
14528;SDS011;7351;51.194;4.098;2023-05-07T01:54:09;4.57;;;4.10;;
14528;SDS011;7351;51.194;4.098;2023-05-07T01:56:36;4.13;;;3.77;;
14528;SDS011;7351;51.194;4.098;2023-05-07T01:59:05;4.60;;;4.20;;
14528;SDS011;7351;51.194;4.098;2023-05-07T02:01:31;4.70;;;4.03;;
14528;SDS011;7351;51.194;4.098;2023-05-07T02:03:58;4.60;;;4.20;;
14528;SDS011;7351;51.194;4.098;2023-05-07T02:06:25;4.17;;;3.83;;
14528;SDS011;7351;51.194;4.098;2023-05-07T02:08:52;4.83;;;4.30;;
14528;SDS011;7351;51.194;4.098;2023-05-07T02:11:19;4.27;;;3.90;;
14528;SDS011;7351;51.194;4.098;2023-05-07T02:13:46;4.00;;;3.67;;
14528;SDS011;7351;51.194;4.098;2023-05-07T02:16:14;4.50;;;4.20;;
14528;SDS011;7351;51.194;4.098;2023-05-07T02:18:41;4.50;;;4.20;;
14528;SDS011;7351;51.194;4.098;2023-05-07T02:21:08;4.23;;;3.93;;
14528;SDS011;7351;51.194;4.098;2023-05-07T02:23:35;4.43;;;4.03;;
14528;SDS011;7351;51.194;4.098;2023-05-07T02:26:03;4.43;;;4.03;;
14528;SDS011;7351;51.194;4.098;2023-05-07T02:28:30;4.50;;;4.17;;
14528;SDS011;7351;51.194;4.098;2023-05-07T02:30:57;4.10;;;3.80;;
14528;SDS011;7351;51.194;4.098;2023-05-07T02:33:27;4.07;;;3.77;;
14528;SDS011;7351;51.194;4.098;2023-05-07T02:35:53;4.70;;;4.27;;
14528;SDS011;7351;51.194;4.098;2023-05-07T02:38:20;4.53;;;4.23;;
14528;SDS011;7351;51.194;4.098;2023-05-07T02:40:48;4.80;;;4.40;;
14528;SDS011;7351;51.194;4.098;2023-05-07T02:43:15;4.83;;;3.47;;
14528;SDS011;7351;51.194;4.098;2023-05-07T02:45:42;4.47;;;4.07;;
14528;SDS011;7351;51.194;4.098;2023-05-07T02:48:09;3.87;;;3.57;;
14528;SDS011;7351;51.194;4.098;2023-05-07T02:50:37;4.90;;;4.40;;
14528;SDS011;7351;51.194;4.098;2023-05-07T02:53:04;4.50;;;4.10;;
14528;SDS011;7351;51.194;4.098;2023-05-07T02:55:31;4.50;;;4.10;;
14528;SDS011;7351;51.194;4.098;2023-05-07T02:57:58;6.10;;;4.47;;
14528;SDS011;7351;51.194;4.098;2023-05-07T03:00:25;4.23;;;3.93;;
14528;SDS011;7351;51.194;4.098;2023-05-07T03:02:52;4.13;;;3.83;;
14528;SDS011;7351;51.194;4.098;2023-05-07T03:05:19;5.30;;;4.60;;
14528;SDS011;7351;51.194;4.098;2023-05-07T03:07:48;3.97;;;3.63;;
14528;SDS011;7351;51.194;4.098;2023-05-07T03:10:15;4.83;;;3.80;;
14528;SDS011;7351;51.194;4.098;2023-05-07T03:12:42;4.23;;;3.40;;
14528;SDS011;7351;51.194;4.098;2023-05-07T03:15:09;4.27;;;3.87;;
14528;SDS011;7351;51.194;4.098;2023-05-07T03:17:37;4.43;;;4.07;;
14528;SDS011;7351;51.194;4.098;2023-05-07T03:20:05;7.90;;;4.13;;
14528;SDS011;7351;51.194;4.098;2023-05-07T03:22:33;4.37;;;4.07;;
14528;SDS011;7351;51.194;4.098;2023-05-07T03:25:01;3.97;;;3.77;;
14528;SDS011;7351;51.194;4.098;2023-05-07T03:27:29;4.40;;;4.10;;
14528;SDS011;7351;51.194;4.098;2023-05-07T03:29:56;4.87;;;4.37;;
14528;SDS011;7351;51.194;4.098;2023-05-07T03:32:23;4.80;;;4.40;;
14528;SDS011;7351;51.194;4.098;2023-05-07T03:34:50;4.37;;;4.07;;
14528;SDS011;7351;51.194;4.098;2023-05-07T03:37:17;4.60;;;4.27;;
14528;SDS011;7351;51.194;4.098;2023-05-07T03:39:44;4.57;;;4.27;;
14528;SDS011;7351;51.194;4.098;2023-05-07T03:42:13;4.63;;;4.23;;
14528;SDS011;7351;51.194;4.098;2023-05-07T03:44:40;4.63;;;4.23;;
14528;SDS011;7351;51.194;4.098;2023-05-07T03:47:07;4.87;;;4.47;;
14528;SDS011;7351;51.194;4.098;2023-05-07T03:49:35;4.23;;;3.93;;
14528;SDS011;7351;51.194;4.098;2023-05-07T03:52:02;4.23;;;3.83;;
14528;SDS011;7351;51.194;4.098;2023-05-07T03:54:30;4.10;;;3.80;;
14528;SDS011;7351;51.194;4.098;2023-05-07T03:56:57;4.27;;;3.97;;
14528;SDS011;7351;51.194;4.098;2023-05-07T03:59:25;4.43;;;4.13;;
14528;SDS011;7351;51.194;4.098;2023-05-07T04:01:52;3.93;;;3.73;;
14528;SDS011;7351;51.194;4.098;2023-05-07T04:04:19;4.20;;;3.90;;
14528;SDS011;7351;51.194;4.098;2023-05-07T04:06:46;4.43;;;4.13;;
14528;SDS011;7351;51.194;4.098;2023-05-07T04:09:13;4.80;;;3.97;;
14528;SDS011;7351;51.194;4.098;2023-05-07T04:11:40;4.80;;;4.30;;
14528;SDS011;7351;51.194;4.098;2023-05-07T04:14:07;4.47;;;4.17;;
14528;SDS011;7351;51.194;4.098;2023-05-07T04:16:35;4.07;;;3.77;;
14528;SDS011;7351;51.194;4.098;2023-05-07T04:19:02;4.33;;;4.03;;
14528;SDS011;7351;51.194;4.098;2023-05-07T04:21:29;3.67;;;3.40;;
14528;SDS011;7351;51.194;4.098;2023-05-07T04:23:56;4.97;;;4.13;;
14528;SDS011;7351;51.194;4.098;2023-05-07T04:26:23;6.00;;;4.17;;
14528;SDS011;7351;51.194;4.098;2023-05-07T04:28:50;4.57;;;4.13;;
14528;SDS011;7351;51.194;4.098;2023-05-07T04:31:17;4.13;;;3.77;;
14528;SDS011;7351;51.194;4.098;2023-05-07T04:33:46;4.33;;;4.03;;
14528;SDS011;7351;51.194;4.098;2023-05-07T04:36:13;3.40;;;3.20;;
14528;SDS011;7351;51.194;4.098;2023-05-07T04:38:40;4.97;;;4.57;;
14528;SDS011;7351;51.194;4.098;2023-05-07T04:41:08;3.83;;;3.53;;
14528;SDS011;7351;51.194;4.098;2023-05-07T04:43:36;6.80;;;3.90;;
14528;SDS011;7351;51.194;4.098;2023-05-07T04:46:03;5.00;;;4.07;;
14528;SDS011;7351;51.194;4.098;2023-05-07T04:48:30;4.63;;;4.23;;
14528;SDS011;7351;51.194;4.098;2023-05-07T04:50:58;4.13;;;3.93;;
14528;SDS011;7351;51.194;4.098;2023-05-07T04:53:25;4.13;;;3.83;;
14528;SDS011;7351;51.194;4.098;2023-05-07T04:55:54;4.50;;;4.10;;
14528;SDS011;7351;51.194;4.098;2023-05-07T04:58:22;3.77;;;3.53;;
14528;SDS011;7351;51.194;4.098;2023-05-07T05:00:49;7.63;;;4.37;;
14528;SDS011;7351;51.194;4.098;2023-05-07T05:03:17;4.73;;;4.30;;
14528;SDS011;7351;51.194;4.098;2023-05-07T05:05:44;5.23;;;4.83;;
14528;SDS011;7351;51.194;4.098;2023-05-07T05:08:12;7.10;;;6.40;;
14528;SDS011;7351;51.194;4.098;2023-05-07T05:10:39;11.77;;;6.83;;
14528;SDS011;7351;51.194;4.098;2023-05-07T05:13:08;8.63;;;6.87;;
14528;SDS011;7351;51.194;4.098;2023-05-07T05:15:37;7.57;;;7.00;;
14528;SDS011;7351;51.194;4.098;2023-05-07T05:18:04;7.60;;;7.07;;
14528;SDS011;7351;51.194;4.098;2023-05-07T05:20:31;8.47;;;7.77;;
14528;SDS011;7351;51.194;4.098;2023-05-07T05:22:58;7.80;;;7.10;;
14528;SDS011;7351;51.194;4.098;2023-05-07T05:25:26;8.83;;;8.03;;
14528;SDS011;7351;51.194;4.098;2023-05-07T05:27:53;11.27;;;7.60;;
14528;SDS011;7351;51.194;4.098;2023-05-07T05:30:20;8.03;;;7.47;;
14528;SDS011;7351;51.194;4.098;2023-05-07T05:32:47;8.47;;;7.87;;
14528;SDS011;7351;51.194;4.098;2023-05-07T05:35:14;9.40;;;8.07;;
14528;SDS011;7351;51.194;4.098;2023-05-07T05:37:41;10.07;;;7.77;;
14528;SDS011;7351;51.194;4.098;2023-05-07T05:40:09;14.70;;;9.20;;
14528;SDS011;7351;51.194;4.098;2023-05-07T05:42:38;12.53;;;8.30;;
14528;SDS011;7351;51.194;4.098;2023-05-07T05:45:05;9.13;;;8.10;;
14528;SDS011;7351;51.194;4.098;2023-05-07T05:47:33;11.90;;;8.10;;
14528;SDS011;7351;51.194;4.098;2023-05-07T05:50:00;8.87;;;7.90;;
14528;SDS011;7351;51.194;4.098;2023-05-07T05:52:27;8.03;;;7.30;;
14528;SDS011;7351;51.194;4.098;2023-05-07T05:54:54;8.80;;;7.90;;
14528;SDS011;7351;51.194;4.098;2023-05-07T05:57:21;8.63;;;7.73;;
14528;SDS011;7351;51.194;4.098;2023-05-07T05:59:49;11.67;;;7.43;;
14528;SDS011;7351;51.194;4.098;2023-05-07T06:02:17;9.33;;;7.23;;
14528;SDS011;7351;51.194;4.098;2023-05-07T06:04:43;7.93;;;6.33;;
14528;SDS011;7351;51.194;4.098;2023-05-07T06:07:10;8.43;;;6.57;;
14528;SDS011;7351;51.194;4.098;2023-05-07T06:09:37;7.23;;;6.30;;
14528;SDS011;7351;51.194;4.098;2023-05-07T06:12:05;7.40;;;6.73;;
14528;SDS011;7351;51.194;4.098;2023-05-07T06:14:32;8.73;;;6.47;;
14528;SDS011;7351;51.194;4.098;2023-05-07T06:17:00;8.60;;;5.57;;
14528;SDS011;7351;51.194;4.098;2023-05-07T06:19:27;5.90;;;5.33;;
14528;SDS011;7351;51.194;4.098;2023-05-07T06:21:54;5.80;;;5.30;;
14528;SDS011;7351;51.194;4.098;2023-05-07T06:24:22;6.03;;;5.43;;
14528;SDS011;7351;51.194;4.098;2023-05-07T06:26:49;6.00;;;5.40;;
14528;SDS011;7351;51.194;4.098;2023-05-07T06:29:16;5.57;;;5.20;;
14528;SDS011;7351;51.194;4.098;2023-05-07T06:31:43;6.57;;;5.60;;
14528;SDS011;7351;51.194;4.098;2023-05-07T06:34:11;6.67;;;5.80;;
14528;SDS011;7351;51.194;4.098;2023-05-07T06:36:40;5.83;;;5.33;;
14528;SDS011;7351;51.194;4.098;2023-05-07T06:39:07;5.57;;;5.07;;
14528;SDS011;7351;51.194;4.098;2023-05-07T06:41:34;5.23;;;4.93;;
14528;SDS011;7351;51.194;4.098;2023-05-07T06:44:01;6.30;;;5.40;;
14528;SDS011;7351;51.194;4.098;2023-05-07T06:46:28;5.50;;;4.97;;
14528;SDS011;7351;51.194;4.098;2023-05-07T06:48:55;6.07;;;5.57;;
14528;SDS011;7351;51.194;4.098;2023-05-07T06:51:24;8.73;;;4.97;;
14528;SDS011;7351;51.194;4.098;2023-05-07T06:53:51;5.07;;;4.73;;
14528;SDS011;7351;51.194;4.098;2023-05-07T06:56:18;4.73;;;4.33;;
14528;SDS011;7351;51.194;4.098;2023-05-07T06:58:46;6.20;;;5.60;;
14528;SDS011;7351;51.194;4.098;2023-05-07T07:01:13;7.07;;;5.63;;
14528;SDS011;7351;51.194;4.098;2023-05-07T07:03:40;5.77;;;5.27;;
14528;SDS011;7351;51.194;4.098;2023-05-07T07:06:07;5.23;;;4.87;;
14528;SDS011;7351;51.194;4.098;2023-05-07T07:08:35;5.07;;;4.70;;
14528;SDS011;7351;51.194;4.098;2023-05-07T07:11:03;6.77;;;5.43;;
14528;SDS011;7351;51.194;4.098;2023-05-07T07:13:30;5.13;;;4.60;;
14528;SDS011;7351;51.194;4.098;2023-05-07T07:15:57;6.00;;;5.20;;
14528;SDS011;7351;51.194;4.098;2023-05-07T07:18:24;5.70;;;5.20;;
14528;SDS011;7351;51.194;4.098;2023-05-07T07:20:51;5.00;;;4.60;;
14528;SDS011;7351;51.194;4.098;2023-05-07T07:23:18;5.03;;;4.67;;
14528;SDS011;7351;51.194;4.098;2023-05-07T07:25:47;7.23;;;5.80;;
14528;SDS011;7351;51.194;4.098;2023-05-07T07:28:13;11.00;;;5.47;;
14528;SDS011;7351;51.194;4.098;2023-05-07T07:30:40;5.27;;;4.73;;
14528;SDS011;7351;51.194;4.098;2023-05-07T07:33:07;10.73;;;4.47;;
14528;SDS011;7351;51.194;4.098;2023-05-07T07:35:34;4.83;;;3.83;;
14528;SDS011;7351;51.194;4.098;2023-05-07T07:38:01;5.43;;;4.63;;
14528;SDS011;7351;51.194;4.098;2023-05-07T07:40:28;7.23;;;4.17;;
14528;SDS011;7351;51.194;4.098;2023-05-07T07:42:57;4.73;;;4.33;;
14528;SDS011;7351;51.194;4.098;2023-05-07T07:45:25;4.87;;;4.30;;
14528;SDS011;7351;51.194;4.098;2023-05-07T07:47:52;4.57;;;4.13;;
14528;SDS011;7351;51.194;4.098;2023-05-07T07:50:19;5.93;;;4.17;;
14528;SDS011;7351;51.194;4.098;2023-05-07T07:52:46;7.33;;;5.17;;
14528;SDS011;7351;51.194;4.098;2023-05-07T07:55:14;5.13;;;4.50;;
14528;SDS011;7351;51.194;4.098;2023-05-07T07:57:43;7.87;;;4.47;;
14528;SDS011;7351;51.194;4.098;2023-05-07T08:00:12;5.73;;;4.00;;
14528;SDS011;7351;51.194;4.098;2023-05-07T08:02:39;5.30;;;4.00;;
14528;SDS011;7351;51.194;4.098;2023-05-07T08:05:07;9.77;;;4.30;;
14528;SDS011;7351;51.194;4.098;2023-05-07T08:07:34;7.30;;;4.00;;
14528;SDS011;7351;51.194;4.098;2023-05-07T08:10:01;5.40;;;4.73;;
14528;SDS011;7351;51.194;4.098;2023-05-07T08:12:29;9.10;;;4.30;;
14528;SDS011;7351;51.194;4.098;2023-05-07T08:14:56;7.03;;;4.57;;
14528;SDS011;7351;51.194;4.098;2023-05-07T08:17:24;5.57;;;4.47;;
14528;SDS011;7351;51.194;4.098;2023-05-07T08:19:51;5.87;;;3.80;;
14528;SDS011;7351;51.194;4.098;2023-05-07T08:22:18;8.20;;;3.80;;
14528;SDS011;7351;51.194;4.098;2023-05-07T08:24:45;5.33;;;3.30;;
14528;SDS011;7351;51.194;4.098;2023-05-07T08:27:12;8.30;;;4.17;;
14528;SDS011;7351;51.194;4.098;2023-05-07T08:29:38;9.13;;;5.13;;
14528;SDS011;7351;51.194;4.098;2023-05-07T08:32:05;5.20;;;4.70;;
14528;SDS011;7351;51.194;4.098;2023-05-07T08:34:34;6.97;;;4.63;;
14528;SDS011;7351;51.194;4.098;2023-05-07T08:37:01;10.53;;;4.57;;
14528;SDS011;7351;51.194;4.098;2023-05-07T08:39:28;9.27;;;4.33;;
14528;SDS011;7351;51.194;4.098;2023-05-07T08:41:55;7.07;;;4.10;;
14528;SDS011;7351;51.194;4.098;2023-05-07T08:44:23;7.50;;;4.27;;
14528;SDS011;7351;51.194;4.098;2023-05-07T08:46:53;4.77;;;3.87;;
14528;SDS011;7351;51.194;4.098;2023-05-07T08:49:22;7.70;;;4.20;;
14528;SDS011;7351;51.194;4.098;2023-05-07T08:51:51;9.03;;;3.80;;
14528;SDS011;7351;51.194;4.098;2023-05-07T08:54:18;8.57;;;3.63;;
14528;SDS011;7351;51.194;4.098;2023-05-07T08:56:47;6.20;;;4.27;;
14528;SDS011;7351;51.194;4.098;2023-05-07T08:59:14;12.77;;;3.90;;
14528;SDS011;7351;51.194;4.098;2023-05-07T09:01:41;7.93;;;3.60;;
14528;SDS011;7351;51.194;4.098;2023-05-07T09:04:08;4.37;;;3.50;;
14528;SDS011;7351;51.194;4.098;2023-05-07T09:06:35;5.17;;;3.33;;
14528;SDS011;7351;51.194;4.098;2023-05-07T09:09:04;6.73;;;3.93;;
14528;SDS011;7351;51.194;4.098;2023-05-07T09:11:31;5.60;;;4.17;;
14528;SDS011;7351;51.194;4.098;2023-05-07T09:13:58;7.47;;;4.03;;
14528;SDS011;7351;51.194;4.098;2023-05-07T09:16:26;8.10;;;4.47;;
14528;SDS011;7351;51.194;4.098;2023-05-07T09:18:54;4.63;;;3.20;;
14528;SDS011;7351;51.194;4.098;2023-05-07T09:21:24;3.97;;;3.53;;
14528;SDS011;7351;51.194;4.098;2023-05-07T09:23:51;5.30;;;3.80;;
14528;SDS011;7351;51.194;4.098;2023-05-07T09:26:22;7.50;;;4.33;;
14528;SDS011;7351;51.194;4.098;2023-05-07T09:28:49;4.40;;;3.30;;
14528;SDS011;7351;51.194;4.098;2023-05-07T09:31:17;5.03;;;3.00;;
14528;SDS011;7351;51.194;4.098;2023-05-07T09:33:44;4.70;;;3.70;;
14528;SDS011;7351;51.194;4.098;2023-05-07T09:36:11;6.30;;;3.90;;
14528;SDS011;7351;51.194;4.098;2023-05-07T09:38:38;7.53;;;3.60;;
14528;SDS011;7351;51.194;4.098;2023-05-07T09:41:07;6.07;;;3.63;;
14528;SDS011;7351;51.194;4.098;2023-05-07T09:43:37;5.50;;;3.83;;
14528;SDS011;7351;51.194;4.098;2023-05-07T09:46:08;4.90;;;3.57;;
14528;SDS011;7351;51.194;4.098;2023-05-07T09:48:38;3.70;;;3.40;;
14528;SDS011;7351;51.194;4.098;2023-05-07T09:51:08;5.57;;;3.33;;
14528;SDS011;7351;51.194;4.098;2023-05-07T09:53:41;4.03;;;3.73;;
14528;SDS011;7351;51.194;4.098;2023-05-07T09:56:12;4.43;;;3.20;;
14528;SDS011;7351;51.194;4.098;2023-05-07T09:58:42;3.53;;;3.10;;
14528;SDS011;7351;51.194;4.098;2023-05-07T10:01:11;4.67;;;3.10;;
14528;SDS011;7351;51.194;4.098;2023-05-07T10:03:39;3.70;;;3.13;;
14528;SDS011;7351;51.194;4.098;2023-05-07T10:06:08;2.83;;;2.63;;
14528;SDS011;7351;51.194;4.098;2023-05-07T10:08:36;4.30;;;3.17;;
14528;SDS011;7351;51.194;4.098;2023-05-07T10:11:03;5.70;;;3.37;;
14528;SDS011;7351;51.194;4.098;2023-05-07T10:13:31;3.80;;;3.23;;
14528;SDS011;7351;51.194;4.098;2023-05-07T10:16:02;3.37;;;3.07;;
14528;SDS011;7351;51.194;4.098;2023-05-07T10:21:00;3.27;;;2.87;;
14528;SDS011;7351;51.194;4.098;2023-05-07T10:23:33;3.77;;;3.47;;
14528;SDS011;7351;51.194;4.098;2023-05-07T10:26:00;3.37;;;3.00;;
14528;SDS011;7351;51.194;4.098;2023-05-07T10:28:30;3.57;;;3.27;;
14528;SDS011;7351;51.194;4.098;2023-05-07T10:31:07;3.60;;;3.13;;
14528;SDS011;7351;51.194;4.098;2023-05-07T10:33:45;4.00;;;2.90;;
14528;SDS011;7351;51.194;4.098;2023-05-07T10:36:15;3.63;;;3.33;;
14528;SDS011;7351;51.194;4.098;2023-05-07T10:38:43;4.53;;;3.20;;
14528;SDS011;7351;51.194;4.098;2023-05-07T10:41:11;3.43;;;3.13;;
14528;SDS011;7351;51.194;4.098;2023-05-07T10:43:40;3.93;;;3.40;;
14528;SDS011;7351;51.194;4.098;2023-05-07T10:46:13;5.93;;;3.50;;
14528;SDS011;7351;51.194;4.098;2023-05-07T10:51:36;9.80;;;4.87;;
14528;SDS011;7351;51.194;4.098;2023-05-07T10:54:21;7.33;;;4.83;;
14528;SDS011;7351;51.194;4.098;2023-05-07T10:56:50;5.50;;;4.23;;
14528;SDS011;7351;51.194;4.098;2023-05-07T10:59:35;4.67;;;4.27;;
14528;SDS011;7351;51.194;4.098;2023-05-07T11:02:12;11.07;;;5.10;;
14528;SDS011;7351;51.194;4.098;2023-05-07T11:04:40;7.10;;;5.03;;
14528;SDS011;7351;51.194;4.098;2023-05-07T11:07:26;7.23;;;3.93;;
14528;SDS011;7351;51.194;4.098;2023-05-07T11:09:54;9.70;;;4.87;;
14528;SDS011;7351;51.194;4.098;2023-05-07T11:15:37;6.23;;;3.47;;
14528;SDS011;7351;51.194;4.098;2023-05-07T11:18:08;5.43;;;4.03;;
14528;SDS011;7351;51.194;4.098;2023-05-07T11:20:44;5.53;;;4.03;;
14528;SDS011;7351;51.194;4.098;2023-05-07T11:26:12;4.53;;;4.07;;
14528;SDS011;7351;51.194;4.098;2023-05-07T11:28:40;7.13;;;3.67;;
14528;SDS011;7351;51.194;4.098;2023-05-07T11:31:08;7.87;;;3.73;;
14528;SDS011;7351;51.194;4.098;2023-05-07T11:33:37;6.63;;;3.63;;
14528;SDS011;7351;51.194;4.098;2023-05-07T11:36:05;5.50;;;4.00;;
14528;SDS011;7351;51.194;4.098;2023-05-07T11:38:34;9.77;;;3.27;;
14528;SDS011;7351;51.194;4.098;2023-05-07T11:41:02;10.90;;;3.30;;
14528;SDS011;7351;51.194;4.098;2023-05-07T11:43:30;5.03;;;3.87;;
14528;SDS011;7351;51.194;4.098;2023-05-07T11:46:04;6.87;;;3.60;;
14528;SDS011;7351;51.194;4.098;2023-05-07T11:48:33;5.77;;;3.83;;
14528;SDS011;7351;51.194;4.098;2023-05-07T11:51:01;6.63;;;3.30;;
14528;SDS011;7351;51.194;4.098;2023-05-07T11:53:35;4.50;;;2.80;;
14528;SDS011;7351;51.194;4.098;2023-05-07T11:56:06;8.67;;;3.67;;
14528;SDS011;7351;51.194;4.098;2023-05-07T11:58:33;5.37;;;3.20;;
14528;SDS011;7351;51.194;4.098;2023-05-07T12:01:01;5.30;;;3.30;;
14528;SDS011;7351;51.194;4.098;2023-05-07T12:03:28;10.70;;;3.13;;
14528;SDS011;7351;51.194;4.098;2023-05-07T12:05:55;5.27;;;3.33;;
14528;SDS011;7351;51.194;4.098;2023-05-07T12:08:24;6.90;;;3.57;;
14528;SDS011;7351;51.194;4.098;2023-05-07T12:10:50;2.77;;;2.50;;
14528;SDS011;7351;51.194;4.098;2023-05-07T12:13:18;5.77;;;2.97;;
14528;SDS011;7351;51.194;4.098;2023-05-07T12:15:46;5.80;;;3.03;;
14528;SDS011;7351;51.194;4.098;2023-05-07T12:18:16;6.37;;;3.03;;
14528;SDS011;7351;51.194;4.098;2023-05-07T12:20:43;3.80;;;2.83;;
14528;SDS011;7351;51.194;4.098;2023-05-07T12:23:11;6.00;;;2.53;;
14528;SDS011;7351;51.194;4.098;2023-05-07T12:25:40;3.77;;;2.53;;
14528;SDS011;7351;51.194;4.098;2023-05-07T12:28:12;5.63;;;3.30;;
14528;SDS011;7351;51.194;4.098;2023-05-07T12:30:40;5.77;;;3.00;;
14528;SDS011;7351;51.194;4.098;2023-05-07T12:33:08;5.33;;;3.33;;
14528;SDS011;7351;51.194;4.098;2023-05-07T12:35:37;6.23;;;2.93;;
14528;SDS011;7351;51.194;4.098;2023-05-07T12:38:07;4.27;;;2.40;;
14528;SDS011;7351;51.194;4.098;2023-05-07T12:40:35;2.90;;;2.60;;
14528;SDS011;7351;51.194;4.098;2023-05-07T12:43:04;2.70;;;2.50;;
14528;SDS011;7351;51.194;4.098;2023-05-07T12:45:32;7.47;;;3.33;;
14528;SDS011;7351;51.194;4.098;2023-05-07T12:48:04;6.30;;;2.63;;
14528;SDS011;7351;51.194;4.098;2023-05-07T12:50:31;3.23;;;2.93;;
14528;SDS011;7351;51.194;4.098;2023-05-07T12:52:59;5.87;;;2.73;;
14528;SDS011;7351;51.194;4.098;2023-05-07T12:55:31;3.83;;;3.00;;
14528;SDS011;7351;51.194;4.098;2023-05-07T12:58:00;7.93;;;2.73;;
14528;SDS011;7351;51.194;4.098;2023-05-07T13:00:35;4.17;;;2.67;;
14528;SDS011;7351;51.194;4.098;2023-05-07T13:03:03;6.03;;;2.60;;
14528;SDS011;7351;51.194;4.098;2023-05-07T13:05:31;8.67;;;2.43;;
14528;SDS011;7351;51.194;4.098;2023-05-07T13:07:58;5.90;;;2.40;;
14528;SDS011;7351;51.194;4.098;2023-05-07T13:10:26;4.90;;;2.70;;
14528;SDS011;7351;51.194;4.098;2023-05-07T13:12:53;4.60;;;2.80;;
14528;SDS011;7351;51.194;4.098;2023-05-07T13:15:20;3.67;;;3.07;;
14528;SDS011;7351;51.194;4.098;2023-05-07T13:17:49;5.53;;;2.60;;
14528;SDS011;7351;51.194;4.098;2023-05-07T13:20:16;7.07;;;2.80;;
14528;SDS011;7351;51.194;4.098;2023-05-07T13:22:43;3.80;;;3.00;;
14528;SDS011;7351;51.194;4.098;2023-05-07T13:25:16;5.67;;;3.00;;
14528;SDS011;7351;51.194;4.098;2023-05-07T13:27:43;3.47;;;2.57;;
14528;SDS011;7351;51.194;4.098;2023-05-07T13:30:10;3.23;;;2.43;;
14528;SDS011;7351;51.194;4.098;2023-05-07T13:32:37;5.93;;;2.80;;
14528;SDS011;7351;51.194;4.098;2023-05-07T13:35:06;7.17;;;3.00;;
14528;SDS011;7351;51.194;4.098;2023-05-07T13:37:34;6.23;;;2.83;;
14528;SDS011;7351;51.194;4.098;2023-05-07T13:40:01;4.03;;;2.53;;
14528;SDS011;7351;51.194;4.098;2023-05-07T13:42:28;5.53;;;2.40;;
14528;SDS011;7351;51.194;4.098;2023-05-07T13:44:55;4.07;;;2.45;;
14528;SDS011;7351;51.194;4.098;2023-05-07T13:47:22;4.90;;;2.70;;
14528;SDS011;7351;51.194;4.098;2023-05-07T13:49:49;2.47;;;2.10;;
14528;SDS011;7351;51.194;4.098;2023-05-07T13:52:18;4.63;;;2.57;;
14528;SDS011;7351;51.194;4.098;2023-05-07T13:54:45;4.70;;;2.10;;
14528;SDS011;7351;51.194;4.098;2023-05-07T13:57:12;3.97;;;2.37;;
14528;SDS011;7351;51.194;4.098;2023-05-07T13:59:40;4.17;;;2.57;;
14528;SDS011;7351;51.194;4.098;2023-05-07T14:02:07;3.00;;;2.70;;
14528;SDS011;7351;51.194;4.098;2023-05-07T14:04:34;3.03;;;2.07;;
14528;SDS011;7351;51.194;4.098;2023-05-07T14:07:01;6.83;;;2.67;;
14528;SDS011;7351;51.194;4.098;2023-05-07T14:09:29;1.90;;;1.80;;
14528;SDS011;7351;51.194;4.098;2023-05-07T14:11:56;4.73;;;2.60;;
14528;SDS011;7351;51.194;4.098;2023-05-07T14:14:23;2.30;;;1.93;;
14528;SDS011;7351;51.194;4.098;2023-05-07T14:16:50;3.23;;;2.33;;
14528;SDS011;7351;51.194;4.098;2023-05-07T14:19:17;2.77;;;2.40;;
14528;SDS011;7351;51.194;4.098;2023-05-07T14:21:44;2.07;;;1.67;;
14528;SDS011;7351;51.194;4.098;2023-05-07T14:24:11;2.23;;;2.10;;
14528;SDS011;7351;51.194;4.098;2023-05-07T14:26:39;2.60;;;2.10;;
14528;SDS011;7351;51.194;4.098;2023-05-07T14:29:06;2.90;;;1.50;;
14528;SDS011;7351;51.194;4.098;2023-05-07T14:31:33;4.37;;;2.30;;
14528;SDS011;7351;51.194;4.098;2023-05-07T14:34:00;3.77;;;2.10;;
14528;SDS011;7351;51.194;4.098;2023-05-07T14:36:27;2.13;;;1.93;;
14528;SDS011;7351;51.194;4.098;2023-05-07T14:38:55;2.10;;;1.73;;
14528;SDS011;7351;51.194;4.098;2023-05-07T14:41:24;2.20;;;2.00;;
14528;SDS011;7351;51.194;4.098;2023-05-07T14:43:52;2.53;;;2.07;;
14528;SDS011;7351;51.194;4.098;2023-05-07T14:46:19;3.23;;;2.10;;
14528;SDS011;7351;51.194;4.098;2023-05-07T14:48:46;1.80;;;1.63;;
14528;SDS011;7351;51.194;4.098;2023-05-07T14:51:13;2.17;;;1.73;;
14528;SDS011;7351;51.194;4.098;2023-05-07T14:53:40;5.07;;;2.47;;
14528;SDS011;7351;51.194;4.098;2023-05-07T14:56:07;1.83;;;1.67;;
14528;SDS011;7351;51.194;4.098;2023-05-07T14:58:34;2.47;;;1.80;;
14528;SDS011;7351;51.194;4.098;2023-05-07T15:01:03;3.00;;;1.80;;
14528;SDS011;7351;51.194;4.098;2023-05-07T15:03:30;2.17;;;1.97;;
14528;SDS011;7351;51.194;4.098;2023-05-07T15:05:57;8.53;;;1.93;;
14528;SDS011;7351;51.194;4.098;2023-05-07T15:08:24;8.53;;;2.53;;
14528;SDS011;7351;51.194;4.098;2023-05-07T15:10:51;7.60;;;2.33;;
14528;SDS011;7351;51.194;4.098;2023-05-07T15:13:18;15.63;;;2.07;;
14528;SDS011;7351;51.194;4.098;2023-05-07T15:15:45;11.90;;;3.00;;